Time;durP1;ratioP1;P1;durP2;ratioP2;P2;SDS_P1;SDS_P2;PMS_P1;PMS_P2;Temp;Humidity;BMP_temperature;BMP_pressure;BME280_temperature;BME280_humidity;BME280_pressure;Samples;Min_cycle;Max_cycle;Signal;HPM_P1;HPM_P2
2021/11/27 00:00:20;;;;;;;5.68;2.92;;;8.10;98.20;;;;;;5030326;28;20029;-49
2021/11/27 00:02:46;;;;;;;0.98;0.93;;;8.10;98.20;;;;;;5028028;28;20064;-49
2021/11/27 00:05:12;;;;;;;5.45;3.03;;;8.10;98.10;;;;;;5009794;28;20050;-49
2021/11/27 00:07:39;;;;;;;6.35;3.70;;;8.10;98.10;;;;;;5010774;28;20018;-49
2021/11/27 00:10:07;;;;;;;5.70;2.83;;;8.10;98.20;;;;;;5010747;28;20100;-49
2021/11/27 00:12:33;;;;;;;2.47;1.83;;;8.10;98.20;;;;;;5010898;28;20058;-49
2021/11/27 00:14:59;;;;;;;3.45;2.47;;;8.10;98.20;;;;;;5012190;28;20045;-49
2021/11/27 00:17:24;;;;;;;7.50;3.65;;;8.10;98.20;;;;;;5014754;28;20412;-49
2021/11/27 00:19:51;;;;;;;7.13;3.53;;;8.10;98.20;;;;;;5031585;28;20030;-49
2021/11/27 00:22:17;;;;;;;8.70;3.67;;;8.10;98.20;;;;;;5034799;28;20033;-49
2021/11/27 00:24:43;;;;;;;6.88;3.58;;;8.10;98.20;;;;;;5034195;28;20068;-49
2021/11/27 00:27:09;;;;;;;4.30;2.67;;;8.10;98.20;;;;;;5033949;28;20021;-49
2021/11/27 00:29:35;;;;;;;4.93;2.35;;;8.10;98.20;;;;;;5033934;28;20013;-49
2021/11/27 00:32:01;;;;;;;4.20;2.65;;;8.10;98.30;;;;;;5034059;28;20045;-49
2021/11/27 00:34:27;;;;;;;7.07;3.78;;;8.10;98.20;;;;;;5019379;28;20041;-49
2021/11/27 00:36:53;;;;;;;2.15;2.00;;;8.10;98.20;;;;;;5013307;28;20026;-49
2021/11/27 00:39:21;;;;;;;5.07;3.00;;;8.10;98.10;;;;;;5013974;28;20026;-49
2021/11/27 00:41:47;;;;;;;4.70;3.15;;;8.10;98.10;;;;;;5013918;28;20048;-48
2021/11/27 00:44:12;;;;;;;4.47;2.60;;;8.10;98.10;;;;;;5014252;28;20101;-49
2021/11/27 00:46:38;;;;;;;3.67;2.42;;;8.10;98.00;;;;;;5013714;28;20088;-49
2021/11/27 00:49:04;;;;;;;3.38;2.30;;;8.10;98.00;;;;;;5021968;28;20036;-49
2021/11/27 00:51:30;;;;;;;6.63;2.53;;;8.10;98.10;;;;;;5033982;28;20443;-49
2021/11/27 00:53:57;;;;;;;4.15;2.55;;;8.10;98.10;;;;;;5033943;28;20348;-49
2021/11/27 00:56:24;;;;;;;4.10;2.83;;;8.10;98.20;;;;;;5033162;28;20083;-49
2021/11/27 00:58:50;;;;;;;4.78;2.30;;;8.10;98.10;;;;;;5033399;28;20029;-49
2021/11/27 01:01:30;;;;;;;3.90;2.15;;;8.10;98.10;;;;;;5033629;28;20025;-49
2021/11/27 01:03:56;;;;;;;8.83;2.40;;;8.10;98.10;;;;;;5025216;28;20041;-49
2021/11/27 01:06:24;;;;;;;7.55;3.83;;;8.10;98.20;;;;;;5013045;28;20269;-49
2021/11/27 01:08:52;;;;;;;6.55;2.70;;;8.10;98.20;;;;;;5022665;28;20032;-49
2021/11/27 01:11:24;;;;;;;4.68;2.85;;;8.10;98.10;;;;;;5033735;28;20364;-49
2021/11/27 01:13:51;;;;;;;4.28;1.83;;;8.10;98.10;;;;;;5033202;28;20087;-49
2021/11/27 01:16:19;;;;;;;6.13;3.10;;;8.10;98.20;;;;;;5032103;28;20025;-49
2021/11/27 01:18:47;;;;;;;3.88;2.40;;;8.00;98.10;;;;;;5032119;28;20026;-49
2021/11/27 01:21:16;;;;;;;1.55;1.30;;;8.10;98.20;;;;;;5033003;28;20104;-49
2021/11/27 01:23:43;;;;;;;5.45;2.80;;;8.00;98.10;;;;;;5032423;28;20026;-49
2021/11/27 01:26:09;;;;;;;5.03;2.20;;;8.10;98.10;;;;;;5031862;28;20033;-50
2021/11/27 01:28:35;;;;;;;3.65;2.45;;;8.10;98.10;;;;;;5032747;28;20445;-48
2021/11/27 01:31:01;;;;;;;6.28;2.40;;;8.00;98.00;;;;;;5032826;28;20037;-49
2021/11/27 01:33:28;;;;;;;4.53;2.70;;;8.00;98.10;;;;;;5031029;28;20071;-49
2021/11/27 01:35:54;;;;;;;7.13;2.60;;;8.10;98.20;;;;;;5012347;28;20072;-49
2021/11/27 01:38:20;;;;;;;5.22;2.53;;;8.10;98.50;;;;;;5013054;28;20030;-49
2021/11/27 01:40:46;;;;;;;9.80;2.97;;;8.10;98.10;;;;;;5013360;28;20026;-49
2021/11/27 01:43:13;;;;;;;4.57;2.58;;;8.10;98.20;;;;;;5019469;28;20447;-49
2021/11/27 01:45:40;;;;;;;5.38;2.72;;;8.00;98.10;;;;;;5031744;28;20037;-49
2021/11/27 01:48:11;;;;;;;4.40;2.53;;;8.00;98.10;;;;;;5032303;28;20519;-49
2021/11/27 01:50:48;;;;;;;7.95;3.78;;;8.00;98.20;;;;;;5031925;28;20045;-49
2021/11/27 01:53:14;;;;;;;2.38;2.10;;;8.00;98.20;;;;;;5032555;28;20025;-49
2021/11/27 01:55:39;;;;;;;7.78;2.22;;;8.00;98.20;;;;;;5032129;28;20036;-49
2021/11/27 01:58:05;;;;;;;6.43;3.33;;;8.00;98.20;;;;;;5032084;28;20555;-49
2021/11/27 02:00:34;;;;;;;4.30;2.60;;;8.00;98.10;;;;;;5032270;28;20036;-49
2021/11/27 02:03:01;;;;;;;3.72;2.70;;;8.00;98.20;;;;;;5032494;28;20022;-49
2021/11/27 02:05:26;;;;;;;6.32;3.47;;;8.00;98.20;;;;;;5015886;28;20040;-49
2021/11/27 02:07:53;;;;;;;5.93;2.90;;;8.00;98.10;;;;;;5012955;28;20238;-49
2021/11/27 02:10:19;;;;;;;6.25;2.47;;;8.00;98.10;;;;;;5012073;28;20109;-49
2021/11/27 02:12:46;;;;;;;7.20;2.53;;;8.00;98.20;;;;;;5012932;28;20029;-49
2021/11/27 02:15:13;;;;;;;5.90;2.80;;;8.00;98.20;;;;;;5011599;28;20025;-49
2021/11/27 02:17:39;;;;;;;9.40;3.13;;;8.00;98.20;;;;;;5012694;28;20033;-49
2021/11/27 02:20:07;;;;;;;3.15;2.25;;;8.00;98.10;;;;;;5023188;28;20249;-49
2021/11/27 02:22:34;;;;;;;5.50;2.65;;;8.00;98.20;;;;;;5032730;28;20079;-49
2021/11/27 02:25:02;;;;;;;5.30;3.03;;;8.00;98.20;;;;;;5031115;28;20040;-49
2021/11/27 02:27:28;;;;;;;4.60;2.50;;;7.90;98.10;;;;;;5032079;28;20361;-49
2021/11/27 02:29:53;;;;;;;5.68;3.00;;;7.90;98.10;;;;;;5031503;28;20021;-49
2021/11/27 02:32:19;;;;;;;5.70;3.05;;;7.90;98.10;;;;;;5032040;28;20033;-49
2021/11/27 02:34:45;;;;;;;8.50;3.17;;;7.90;98.00;;;;;;5023714;28;20045;-49
2021/11/27 02:37:11;;;;;;;4.78;2.45;;;7.90;98.00;;;;;;5010594;28;20545;-49
2021/11/27 02:39:37;;;;;;;7.80;2.60;;;7.90;98.10;;;;;;5012205;28;20120;-49
2021/11/27 02:42:04;;;;;;;4.47;2.40;;;7.90;98.10;;;;;;5011987;28;20068;-49
2021/11/27 02:44:31;;;;;;;3.80;2.47;;;7.90;98.10;;;;;;5011809;28;20041;-49
2021/11/27 02:46:58;;;;;;;4.32;2.15;;;7.90;98.20;;;;;;5011445;28;20038;-49
2021/11/27 02:49:24;;;;;;;5.28;3.22;;;7.90;98.10;;;;;;5014766;28;20045;-49
2021/11/27 02:51:51;;;;;;;6.60;2.88;;;7.90;98.00;;;;;;5030009;28;20033;-50
2021/11/27 02:54:17;;;;;;;6.97;2.78;;;7.90;98.10;;;;;;5031258;28;20060;-49
2021/11/27 02:56:43;;;;;;;5.70;2.35;;;7.90;98.00;;;;;;5030747;28;20350;-49
2021/11/27 02:59:14;;;;;;;3.63;2.42;;;7.90;98.10;;;;;;5031261;28;20033;-49
2021/11/27 03:01:42;;;;;;;7.07;2.40;;;7.90;98.10;;;;;;5031338;28;20074;-49
2021/11/27 03:04:08;;;;;;;4.85;2.40;;;7.90;98.10;;;;;;5030392;28;20026;-49
2021/11/27 03:06:35;;;;;;;3.20;2.20;;;7.90;98.10;;;;;;5030497;28;20025;-49
2021/11/27 03:09:03;;;;;;;3.88;2.40;;;7.90;98.10;;;;;;5031177;28;20037;-49
2021/11/27 03:11:29;;;;;;;4.38;2.50;;;7.80;98.10;;;;;;5031087;28;20041;-49
2021/11/27 03:13:54;;;;;;;3.88;2.30;;;7.90;98.00;;;;;;5031185;28;20353;-49
2021/11/27 03:16:24;;;;;;;3.08;2.17;;;7.80;98.00;;;;;;5030419;28;20026;-49
2021/11/27 03:18:50;;;;;;;4.72;2.13;;;7.80;98.00;;;;;;5031128;28;20022;-49
2021/11/27 03:21:16;;;;;;;4.78;1.85;;;7.90;98.10;;;;;;5013110;28;20030;-49
2021/11/27 03:23:41;;;;;;;4.28;2.25;;;7.90;98.10;;;;;;5011609;28;20014;-49
2021/11/27 03:26:07;;;;;;;4.00;2.05;;;7.90;98.10;;;;;;5010654;28;20334;-48
2021/11/27 03:28:32;;;;;;;1.70;1.30;;;7.90;98.10;;;;;;5011360;28;20022;-49
2021/11/27 03:30:58;;;;;;;3.00;1.90;;;7.90;98.20;;;;;;5011272;28;20623;-49
2021/11/27 03:33:24;;;;;;;4.22;1.90;;;7.90;98.10;;;;;;5009194;28;20028;-49
2021/11/27 03:35:49;;;;;;;2.58;1.55;;;7.90;98.10;;;;;;5029075;28;20035;-49
2021/11/27 03:38:15;;;;;;;2.92;1.88;;;7.90;98.20;;;;;;5030862;28;20017;-49
2021/11/27 03:40:41;;;;;;;3.05;1.70;;;7.90;98.10;;;;;;5031187;28;20116;-49
2021/11/27 03:43:07;;;;;;;2.65;1.70;;;7.90;98.10;;;;;;5031119;28;20363;-50
2021/11/27 03:45:33;;;;;;;2.92;1.88;;;7.80;98.10;;;;;;5029838;28;20053;-49
2021/11/27 03:48:05;;;;;;;6.72;3.88;;;7.80;98.20;;;;;;5031099;28;20030;-49
2021/11/27 03:50:42;;;;;;;3.42;2.20;;;7.90;98.10;;;;;;5029397;28;20468;-49
2021/11/27 03:53:09;;;;;;;3.05;1.75;;;7.90;98.10;;;;;;5030682;28;20038;-49
2021/11/27 03:55:35;;;;;;;4.07;2.03;;;7.90;98.20;;;;;;5029889;28;20037;-49
2021/11/27 03:58:01;;;;;;;4.45;1.75;;;7.80;98.10;;;;;;5030177;28;20483;-49
2021/11/27 04:00:27;;;;;;;6.63;1.88;;;7.90;98.20;;;;;;5028849;28;20076;-49
2021/11/27 04:02:53;;;;;;;3.75;1.85;;;7.90;98.20;;;;;;5030557;28;20037;-49
2021/11/27 04:05:20;;;;;;;2.45;1.58;;;7.80;98.40;;;;;;5028736;28;20029;-49
2021/11/27 04:07:45;;;;;;;1.67;1.33;;;7.90;98.20;;;;;;5030617;28;20045;-49
2021/11/27 04:10:14;;;;;;;4.10;1.77;;;7.90;98.20;;;;;;5026603;28;20029;-50
2021/11/27 04:12:40;;;;;;;4.78;2.03;;;7.90;98.20;;;;;;5015462;28;20125;-49
2021/11/27 04:15:06;;;;;;;4.47;1.83;;;7.80;98.20;;;;;;5010267;28;20038;-49
2021/11/27 04:17:32;;;;;;;4.35;2.00;;;7.80;98.20;;;;;;5010417;28;20357;-49
2021/11/27 04:19:58;;;;;;;3.95;2.00;;;7.90;98.10;;;;;;5012045;28;20454;-49
2021/11/27 04:22:23;;;;;;;3.38;1.40;;;7.90;98.20;;;;;;5030287;28;20095;-49
2021/11/27 04:24:49;;;;;;;2.25;1.92;;;7.90;98.10;;;;;;5030704;28;20027;-49
2021/11/27 04:27:14;;;;;;;3.58;2.03;;;7.90;98.10;;;;;;5027851;28;20504;-49
2021/11/27 04:29:40;;;;;;;5.13;2.35;;;7.90;98.10;;;;;;5030468;28;20060;-49
2021/11/27 04:32:06;;;;;;;4.63;2.22;;;7.80;98.10;;;;;;5030065;28;20472;-50
2021/11/27 04:34:31;;;;;;;3.28;2.15;;;7.90;98.10;;;;;;5030484;28;20356;-49
2021/11/27 04:36:57;;;;;;;4.65;2.20;;;7.90;98.10;;;;;;5028467;28;20534;-49
2021/11/27 04:39:23;;;;;;;4.32;2.40;;;7.90;98.10;;;;;;5030013;28;20034;-50
2021/11/27 04:41:48;;;;;;;6.38;2.17;;;7.90;98.10;;;;;;5030128;28;20372;-49
2021/11/27 04:44:14;;;;;;;5.15;2.17;;;7.90;98.10;;;;;;5030364;28;20449;-49
2021/11/27 04:46:39;;;;;;;2.67;1.65;;;7.90;98.10;;;;;;5029637;28;20032;-49
2021/11/27 04:49:05;;;;;;;2.95;1.77;;;7.90;98.10;;;;;;5029920;28;20033;-49
2021/11/27 04:51:30;;;;;;;3.13;1.85;;;7.90;98.10;;;;;;5029079;28;20392;-50
2021/11/27 04:53:56;;;;;;;2.90;1.88;;;7.90;98.00;;;;;;5029709;28;20033;-49
2021/11/27 04:56:22;;;;;;;2.65;1.83;;;7.90;98.10;;;;;;5029412;28;20504;-49
2021/11/27 04:58:47;;;;;;;4.53;2.17;;;7.90;98.10;;;;;;5030171;28;20064;-49
2021/11/27 05:01:13;;;;;;;3.50;1.90;;;7.90;98.10;;;;;;5032262;28;20028;-49
2021/11/27 05:03:38;;;;;;;2.55;1.70;;;7.90;98.10;;;;;;5033425;28;20626;-49
2021/11/27 05:06:04;;;;;;;2.85;1.77;;;7.90;98.10;;;;;;5023995;28;20041;-50
2021/11/27 05:08:30;;;;;;;2.65;2.08;;;7.90;98.00;;;;;;5013649;28;20033;-49
2021/11/27 05:10:55;;;;;;;2.00;1.58;;;7.90;98.10;;;;;;5013410;28;20033;-49
2021/11/27 05:13:21;;;;;;;2.00;1.27;;;7.90;98.10;;;;;;5013148;28;20052;-49
2021/11/27 05:15:47;;;;;;;2.90;1.13;;;7.90;98.10;;;;;;5020975;28;20164;-49
2021/11/27 05:18:12;;;;;;;5.35;1.85;;;7.90;98.10;;;;;;5023544;28;20135;-49
2021/11/27 05:20:38;;;;;;;2.90;1.65;;;7.90;98.30;;;;;;5021561;28;20041;-49
2021/11/27 05:23:06;;;;;;;1.95;1.23;;;7.90;98.10;;;;;;5023975;28;20036;-49
2021/11/27 05:25:32;;;;;;;2.53;1.63;;;8.00;98.10;;;;;;5021237;28;20018;-49
2021/11/27 05:27:58;;;;;;;3.75;2.00;;;8.00;98.20;;;;;;5022972;28;20029;-49
2021/11/27 05:30:23;;;;;;;2.55;1.42;;;7.90;98.10;;;;;;5023527;28;20124;-49
2021/11/27 05:35:23;;;;;;;1.50;1.40;;;7.90;98.10;;;;;;5018746;28;20100;-49
2021/11/27 05:37:49;;;;;;;2.58;1.98;;;8.00;98.10;;;;;;5024761;28;20477;-49
2021/11/27 05:40:15;;;;;;;2.20;1.65;;;7.90;98.10;;;;;;5032658;28;20404;-49
2021/11/27 05:42:43;;;;;;;4.68;2.17;;;7.90;98.00;;;;;;5033024;28;20487;-49
2021/11/27 05:45:09;;;;;;;2.60;1.38;;;8.00;98.10;;;;;;5032284;28;20041;-49
2021/11/27 05:47:35;;;;;;;3.00;1.98;;;7.90;98.10;;;;;;5031466;28;20057;-50
2021/11/27 05:50:01;;;;;;;3.15;2.00;;;7.90;98.10;;;;;;5032721;28;20118;-50
2021/11/27 05:52:27;;;;;;;3.83;2.00;;;7.90;98.00;;;;;;5031732;28;20049;-49
2021/11/27 05:54:52;;;;;;;2.33;1.65;;;7.90;98.10;;;;;;5032412;28;20104;-49
2021/11/27 05:57:18;;;;;;;3.03;2.28;;;7.90;98.00;;;;;;5031930;28;20127;-49
2021/11/27 05:59:43;;;;;;;3.70;2.08;;;7.90;98.00;;;;;;5032769;28;20135;-49
2021/11/27 06:02:09;;;;;;;4.93;2.10;;;7.90;98.10;;;;;;5032292;28;20029;-49
2021/11/27 06:04:35;;;;;;;2.97;1.73;;;7.90;98.10;;;;;;5032419;28;20342;-49
2021/11/27 06:07:00;;;;;;;4.20;2.00;;;7.90;98.00;;;;;;5019506;28;20076;-49
2021/11/27 06:09:26;;;;;;;6.35;1.92;;;7.90;97.90;;;;;;5012880;28;20033;-49
2021/11/27 06:11:52;;;;;;;2.58;1.27;;;7.90;98.10;;;;;;5011564;28;20360;-49
2021/11/27 06:14:17;;;;;;;2.33;1.70;;;8.00;98.00;;;;;;5012872;28;20036;-49
2021/11/27 06:16:44;;;;;;;3.25;1.70;;;7.90;98.00;;;;;;5011979;28;20480;-51
2021/11/27 06:19:09;;;;;;;1.73;1.20;;;7.90;98.10;;;;;;5012363;28;20354;-49
2021/11/27 06:21:35;;;;;;;3.38;2.00;;;7.90;98.10;;;;;;5018416;28;20033;-49
2021/11/27 06:24:02;;;;;;;4.53;1.75;;;8.00;98.10;;;;;;5032165;28;20033;-49
2021/11/27 06:26:28;;;;;;;1.73;1.63;;;8.00;98.10;;;;;;5030955;28;20082;-49
2021/11/27 06:28:54;;;;;;;2.40;1.92;;;7.90;98.00;;;;;;5032067;28;20021;-50
2021/11/27 06:31:20;;;;;;;3.00;1.85;;;7.90;98.00;;;;;;5031596;28;20034;-49
2021/11/27 06:33:45;;;;;;;2.80;1.30;;;7.90;98.00;;;;;;5032145;28;20079;-49
2021/11/27 06:36:11;;;;;;;3.42;1.80;;;8.00;98.10;;;;;;5027755;28;20499;-49
2021/11/27 06:38:37;;;;;;;2.78;1.98;;;7.90;98.00;;;;;;5012342;28;20029;-49
2021/11/27 06:41:04;;;;;;;2.35;1.60;;;7.90;98.10;;;;;;5011907;28;20105;-49
2021/11/27 06:43:29;;;;;;;2.63;1.83;;;7.90;98.00;;;;;;5012100;28;20033;-49
2021/11/27 06:45:55;;;;;;;4.53;2.10;;;7.90;98.00;;;;;;5010924;28;20032;-49
2021/11/27 06:48:21;;;;;;;3.47;1.80;;;7.90;98.00;;;;;;5012086;28;20108;-49
2021/11/27 06:50:46;;;;;;;3.00;1.55;;;7.90;98.00;;;;;;5011560;28;20253;-49
2021/11/27 06:53:12;;;;;;;1.95;0.85;;;7.90;98.00;;;;;;5029040;28;20048;-49
2021/11/27 06:55:38;;;;;;;4.10;1.30;;;7.90;98.00;;;;;;5031077;28;20052;-50
2021/11/27 06:58:04;;;;;;;5.63;2.70;;;7.90;97.90;;;;;;5031431;28;20048;-49
2021/11/27 07:00:29;;;;;;;4.72;2.50;;;7.90;97.20;;;;;;5031795;28;20322;-49
2021/11/27 07:02:55;;;;;;;3.72;2.05;;;7.90;97.00;;;;;;5031232;28;20030;-49
2021/11/27 07:05:21;;;;;;;6.88;2.60;;;7.90;97.00;;;;;;5030829;28;20022;-49
2021/11/27 07:07:46;;;;;;;2.75;2.00;;;7.90;96.90;;;;;;5017058;28;20037;-49
2021/11/27 07:10:12;;;;;;;3.30;2.33;;;7.90;96.80;;;;;;5011393;28;20061;-49
2021/11/27 07:12:38;;;;;;;3.80;2.10;;;7.90;97.00;;;;;;5011523;28;20026;-49
2021/11/27 07:15:05;;;;;;;4.18;2.53;;;7.90;96.90;;;;;;5010846;28;20026;-49
2021/11/27 07:17:31;;;;;;;5.93;2.60;;;7.90;96.90;;;;;;5011427;28;20044;-50
2021/11/27 07:19:58;;;;;;;4.90;2.47;;;7.90;97.00;;;;;;5011222;28;20034;-49
2021/11/27 07:22:25;;;;;;;2.88;1.90;;;7.90;97.10;;;;;;5019008;28;20026;-49
2021/11/27 07:24:50;;;;;;;2.53;1.52;;;7.90;97.10;;;;;;5031041;28;20068;-49
2021/11/27 07:27:16;;;;;;;3.45;1.80;;;7.90;97.10;;;;;;5030510;28;20415;-49
2021/11/27 07:29:41;;;;;;;2.55;1.60;;;8.00;97.10;;;;;;5030950;28;20508;-49
2021/11/27 07:32:08;;;;;;;4.13;2.50;;;8.00;97.10;;;;;;5030882;28;20040;-49
2021/11/27 07:34:34;;;;;;;3.15;1.52;;;7.90;97.20;;;;;;5031108;28;20060;-49
2021/11/27 07:36:59;;;;;;;1.67;1.17;;;8.00;97.30;;;;;;5023004;28;20053;-49
2021/11/27 07:39:25;;;;;;;2.40;1.60;;;8.00;97.30;;;;;;5021771;28;20045;-49
2021/11/27 07:41:50;;;;;;;11.65;2.63;;;8.00;97.30;;;;;;5027958;28;20030;-49
2021/11/27 07:44:16;;;;;;;1.63;1.42;;;8.00;97.30;;;;;;5030656;28;20026;-49
2021/11/27 07:46:42;;;;;;;7.07;2.00;;;8.00;97.30;;;;;;5030210;28;20025;-49
2021/11/27 07:49:07;;;;;;;3.72;2.50;;;8.00;97.30;;;;;;5031063;28;20568;-49
2021/11/27 07:51:33;;;;;;;2.30;2.08;;;8.00;97.40;;;;;;5029621;28;20029;-49
2021/11/27 07:54:00;;;;;;;7.13;2.30;;;8.00;97.40;;;;;;5030245;28;20032;-49
2021/11/27 07:56:26;;;;;;;3.10;2.35;;;8.00;97.50;;;;;;5029666;28;20512;-49
2021/11/27 07:58:53;;;;;;;2.38;1.63;;;8.00;97.40;;;;;;5029808;28;20427;-49
2021/11/27 08:01:18;;;;;;;2.45;1.92;;;8.00;97.40;;;;;;5030186;28;20441;-49
2021/11/27 08:03:44;;;;;;;3.53;1.63;;;8.00;97.50;;;;;;5031024;28;20021;-49
2021/11/27 08:06:10;;;;;;;5.35;2.58;;;8.00;97.50;;;;;;5029649;28;20025;-49
2021/11/27 08:08:36;;;;;;;3.08;1.98;;;8.00;97.50;;;;;;5014189;28;20030;-49
2021/11/27 08:11:02;;;;;;;3.50;2.30;;;7.90;97.40;;;;;;5011146;28;20041;-49
2021/11/27 08:13:28;;;;;;;15.77;1.95;;;8.00;97.50;;;;;;5010295;28;20097;-49
2021/11/27 08:15:54;;;;;;;5.00;1.85;;;8.00;97.50;;;;;;5010601;28;20026;-49
2021/11/27 08:18:19;;;;;;;2.22;1.42;;;8.00;97.50;;;;;;5010627;28;20030;-49
2021/11/27 08:20:50;;;;;;;3.80;1.55;;;8.00;97.50;;;;;;5010419;28;20103;-49
2021/11/27 08:23:17;;;;;;;0.55;0.55;;;8.00;97.50;;;;;;5021648;28;20037;-49
2021/11/27 08:25:43;;;;;;;3.05;1.88;;;8.00;97.50;;;;;;5029325;28;20025;-49
2021/11/27 08:28:09;;;;;;;4.28;1.80;;;8.00;97.50;;;;;;5030411;28;20469;-49
2021/11/27 08:30:34;;;;;;;1.20;1.10;;;8.10;97.60;;;;;;5030187;28;20033;-49
2021/11/27 08:33:00;;;;;;;3.28;1.63;;;8.00;97.60;;;;;;5030447;28;20052;-49
2021/11/27 08:35:26;;;;;;;3.25;1.55;;;8.10;97.60;;;;;;5030985;28;20505;-49
2021/11/27 08:37:51;;;;;;;2.40;1.60;;;8.10;97.70;;;;;;5025687;28;20030;-49
2021/11/27 08:40:17;;;;;;;3.38;1.95;;;8.10;97.70;;;;;;5014420;28;20424;-49
2021/11/27 08:42:43;;;;;;;2.08;1.88;;;8.10;97.70;;;;;;5014403;28;20069;-49
2021/11/27 08:45:09;;;;;;;2.58;1.50;;;8.10;97.70;;;;;;5013302;28;20083;-49
2021/11/27 08:47:35;;;;;;;2.05;1.60;;;8.10;97.80;;;;;;5014251;28;20026;-49
2021/11/27 08:50:01;;;;;;;2.42;1.38;;;8.10;97.70;;;;;;5014148;28;20026;-49
2021/11/27 08:52:27;;;;;;;5.30;1.40;;;8.10;97.80;;;;;;5016376;28;20033;-49
2021/11/27 08:54:53;;;;;;;2.80;1.58;;;8.10;97.80;;;;;;5033601;28;20557;-49
2021/11/27 08:57:19;;;;;;;0.30;0.30;;;8.10;97.80;;;;;;5033028;28;20464;-49
2021/11/27 08:59:45;;;;;;;1.60;1.35;;;8.10;97.80;;;;;;5033767;28;20044;-49
2021/11/27 09:02:11;;;;;;;2.72;1.30;;;8.10;97.80;;;;;;5033528;28;20457;-49
2021/11/27 09:04:36;;;;;;;1.95;1.75;;;8.10;97.90;;;;;;5033403;28;20049;-48
2021/11/27 09:07:04;;;;;;;0.77;0.77;;;8.10;98.00;;;;;;5032897;28;20132;-49
2021/11/27 09:09:30;;;;;;;1.85;1.65;;;8.10;97.90;;;;;;5013636;28;20036;-49
2021/11/27 09:11:56;;;;;;;2.50;1.70;;;8.20;98.00;;;;;;5013938;28;20120;-49
2021/11/27 09:14:21;;;;;;;1.40;1.05;;;8.10;97.90;;;;;;5013725;28;20419;-49
2021/11/27 09:16:50;;;;;;;2.67;1.70;;;8.20;97.90;;;;;;5013054;28;20030;-49
2021/11/27 09:19:15;;;;;;;3.15;1.33;;;8.10;97.90;;;;;;5013408;28;20036;-49
2021/11/27 09:21:41;;;;;;;3.20;2.30;;;8.20;98.10;;;;;;5013697;28;20057;-48
2021/11/27 09:24:07;;;;;;;1.98;1.70;;;8.20;98.00;;;;;;5027092;28;20029;-49
2021/11/27 09:26:34;;;;;;;3.50;1.75;;;8.20;98.00;;;;;;5032639;28;20378;-48
2021/11/27 09:29:00;;;;;;;2.05;1.50;;;8.20;98.10;;;;;;5033510;28;20037;-49
2021/11/27 09:31:25;;;;;;;1.08;1.00;;;8.20;98.10;;;;;;5033190;28;20029;-49
2021/11/27 09:33:51;;;;;;;2.38;1.30;;;8.20;98.10;;;;;;5032813;28;20415;-49
2021/11/27 09:36:19;;;;;;;2.70;1.75;;;8.20;98.10;;;;;;5032281;28;20376;-49
2021/11/27 09:38:45;;;;;;;1.92;1.10;;;8.20;98.00;;;;;;5020654;28;20486;-49
2021/11/27 09:41:10;;;;;;;1.42;1.10;;;8.20;98.10;;;;;;5013525;28;20054;-49
2021/11/27 09:43:41;;;;;;;3.90;1.75;;;8.20;98.10;;;;;;5013316;28;20437;-50
2021/11/27 09:46:06;;;;;;;;;;;8.20;98.10;;;;;;5012746;28;20445;-49
2021/11/27 09:48:32;;;;;;;1.83;1.00;;;8.20;98.10;;;;;;5012988;28;19912;-49
2021/11/27 09:50:58;;;;;;;1.40;1.30;;;8.20;98.10;;;;;;5013292;28;20108;-49
2021/11/27 09:53:26;;;;;;;1.35;1.23;;;8.20;98.10;;;;;;5018446;28;20476;-49
2021/11/27 09:55:51;;;;;;;2.08;1.75;;;8.30;98.10;;;;;;5032103;28;20655;-49
2021/11/27 09:58:18;;;;;;;2.08;1.58;;;8.30;98.10;;;;;;5032505;28;20037;-49
2021/11/27 10:00:44;;;;;;;2.10;1.40;;;8.20;98.10;;;;;;5033012;28;20029;-49
2021/11/27 10:03:10;;;;;;;3.25;2.15;;;8.30;98.30;;;;;;5032045;28;20361;-49
2021/11/27 10:05:37;;;;;;;2.75;1.30;;;8.20;98.30;;;;;;5031975;28;20160;-49
2021/11/27 10:08:02;;;;;;;1.25;1.15;;;8.30;98.30;;;;;;5028724;28;20084;-49
2021/11/27 10:10:28;;;;;;;1.58;1.35;;;8.30;98.30;;;;;;5012478;28;20575;-49
2021/11/27 10:12:54;;;;;;;3.30;1.40;;;8.30;98.40;;;;;;5012462;28;20577;-49
2021/11/27 10:15:20;;;;;;;1.63;1.10;;;8.30;98.40;;;;;;5011638;28;20168;-50
2021/11/27 10:17:46;;;;;;;2.00;1.38;;;8.30;98.30;;;;;;5012609;28;20025;-49
2021/11/27 10:20:11;;;;;;;1.70;1.40;;;8.30;98.40;;;;;;5012542;28;20029;-49
2021/11/27 10:22:37;;;;;;;1.60;1.15;;;8.30;98.50;;;;;;5012393;28;20550;-49
2021/11/27 10:25:20;;;;;;;2.78;1.65;;;8.30;98.50;;;;;;5028661;28;20025;-49
2021/11/27 10:27:46;;;;;;;2.60;1.20;;;8.30;98.50;;;;;;5032068;28;20025;-49
2021/11/27 10:30:12;;;;;;;2.83;1.02;;;8.30;98.50;;;;;;5032198;28;20032;-49
2021/11/27 10:32:40;;;;;;;1.35;0.98;;;8.30;98.50;;;;;;5031977;28;20041;-49
2021/11/27 10:35:09;;;;;;;1.55;1.25;;;8.30;98.40;;;;;;5030159;28;20029;-49
2021/11/27 10:37:44;;;;;;;1.42;1.20;;;8.30;98.40;;;;;;5032340;28;20025;-49
2021/11/27 10:40:13;;;;;;;1.33;0.98;;;8.30;98.50;;;;;;5012584;28;20034;-49
2021/11/27 10:42:48;;;;;;;2.38;1.55;;;8.30;98.50;;;;;;5012218;28;20293;-49
2021/11/27 10:45:20;;;;;;;2.55;1.10;;;8.30;98.50;;;;;;5011009;28;20887;-49
2021/11/27 10:47:47;;;;;;;1.08;1.05;;;8.30;98.50;;;;;;5011931;28;20037;-49
2021/11/27 10:50:20;;;;;;;2.22;1.40;;;8.40;98.40;;;;;;5011602;28;20030;-49
2021/11/27 10:52:48;;;;;;;2.05;0.95;;;8.30;98.50;;;;;;5012081;28;20376;-49
2021/11/27 10:55:25;;;;;;;2.72;1.17;;;8.40;98.40;;;;;;5027829;28;20539;-49
2021/11/27 10:57:55;;;;;;;0.75;0.75;;;8.40;98.40;;;;;;5030548;28;20360;-49
2021/11/27 11:00:37;;;;;;;0.70;0.70;;;8.40;98.40;;;;;;5031722;28;20025;-49
2021/11/27 11:03:09;;;;;;;1.10;1.08;;;8.40;98.40;;;;;;5031381;28;20573;-49
2021/11/27 11:05:38;;;;;;;1.83;1.60;;;8.40;98.40;;;;;;5030804;28;20384;-49
2021/11/27 11:08:06;;;;;;;1.92;1.33;;;8.40;98.40;;;;;;5031726;28;20280;-49
2021/11/27 11:10:39;;;;;;;1.75;1.38;;;8.40;98.50;;;;;;5011101;28;20073;-49
2021/11/27 11:13:10;;;;;;;1.60;1.50;;;8.40;98.50;;;;;;5011946;28;20032;-49
2021/11/27 11:15:45;;;;;;;3.03;1.98;;;8.40;98.60;;;;;;5011225;28;20103;-48
2021/11/27 11:18:20;;;;;;;1.40;1.30;;;8.40;98.40;;;;;;5011501;28;20441;-48
2021/11/27 11:20:52;;;;;;;3.05;1.52;;;8.40;98.60;;;;;;5011311;28;20034;-49
2021/11/27 11:23:30;;;;;;;1.15;0.93;;;8.40;98.50;;;;;;5011062;28;20034;-49
2021/11/27 11:26:20;;;;;;;2.35;1.48;;;8.40;98.60;;;;;;5010942;28;20030;-49
2021/11/27 11:28:58;;;;;;;;;;;8.40;98.70;;;;;;5011739;28;20018;-49
2021/11/27 11:31:31;;;;;;;1.65;0.82;;;8.40;98.60;;;;;;5011191;28;20408;-48
2021/11/27 11:34:00;;;;;;;1.20;1.10;;;8.40;98.70;;;;;;5011190;28;20026;-49
2021/11/27 11:36:26;;;;;;;1.58;1.20;;;8.40;98.70;;;;;;5010889;28;20037;-48
2021/11/27 11:38:54;;;;;;;1.20;1.10;;;8.40;98.80;;;;;;5013779;28;20033;-49
2021/11/27 11:41:23;;;;;;;1.05;0.85;;;8.40;98.80;;;;;;5031382;28;20081;-49
2021/11/27 11:43:50;;;;;;;1.38;1.27;;;8.40;98.70;;;;;;5030283;28;20094;-49
2021/11/27 11:46:17;;;;;;;1.70;1.15;;;8.40;98.80;;;;;;5028549;28;20025;-49
2021/11/27 11:49:12;;;;;;;3.33;1.30;;;8.50;99.00;;;;;;5030775;28;20460;-49
2021/11/27 11:52:00;;;;;;;0.30;0.30;;;8.50;98.80;;;;;;4930521;29;20056;-49
2021/11/27 11:54:28;;;;;;;1.50;1.17;;;8.50;98.80;;;;;;4929251;29;20119;-49
2021/11/27 11:57:12;;;;;;;2.47;1.83;;;8.50;98.90;;;;;;4928123;29;20470;-49
2021/11/27 11:59:40;;;;;;;2.45;0.70;;;8.50;98.80;;;;;;4931072;29;20036;-49
2021/11/27 12:02:27;;;;;;;1.50;1.13;;;8.50;98.80;;;;;;4930277;29;20585;-49
2021/11/27 12:04:58;;;;;;;1.45;1.35;;;8.50;98.90;;;;;;4930899;29;20019;-49
2021/11/27 12:07:44;;;;;;;1.35;0.98;;;8.50;98.70;;;;;;4928636;29;20027;-50
2021/11/27 12:10:26;;;;;;;2.85;1.42;;;8.50;98.80;;;;;;4931734;29;20055;-49
2021/11/27 12:13:09;;;;;;;1.45;1.13;;;8.50;99.00;;;;;;4933853;29;20415;-49
2021/11/27 12:15:38;;;;;;;2.97;1.65;;;8.50;98.90;;;;;;4933432;29;20463;-49
2021/11/27 12:18:10;;;;;;;0.65;0.65;;;8.60;99.00;;;;;;4932970;29;20535;-50
2021/11/27 12:20:54;;;;;;;3.10;1.20;;;8.60;98.80;;;;;;4931483;29;20272;-50
2021/11/27 12:23:25;;;;;;;3.40;1.48;;;8.60;98.00;;;;;;4915208;29;20517;-50
2021/11/27 12:26:06;;;;;;;4.07;2.55;;;8.60;96.50;;;;;;4929561;29;20036;-51
2021/11/27 12:28:35;;;;;;;;;;;8.60;96.10;;;;;;4991320;28;20372;-51
2021/11/27 12:31:09;;;;;;;1.58;1.33;;;8.50;95.60;;;;;;5015051;28;19913;-50
2021/11/27 12:33:44;;;;;;;1.67;1.30;;;8.50;95.20;;;;;;5014514;28;20022;-50
2021/11/27 12:36:25;;;;;;;3.67;2.40;;;8.50;95.10;;;;;;5013437;28;20042;-50
2021/11/27 12:38:54;;;;;;;1.88;1.30;;;8.50;94.70;;;;;;5015703;28;20044;-50
2021/11/27 12:41:32;;;;;;;3.22;1.25;;;8.50;94.70;;;;;;5032171;28;20038;-50
2021/11/27 12:44:14;;;;;;;2.13;1.80;;;8.50;94.90;;;;;;5033082;28;20121;-50
2021/11/27 12:47:11;;;;;;;2.45;1.85;;;8.40;94.30;;;;;;5033529;28;20554;-50
2021/11/27 12:49:37;;;;;;;4.93;2.17;;;8.40;94.30;;;;;;5022566;28;20022;-50
2021/11/27 12:52:15;;;;;;;3.05;2.20;;;8.40;94.10;;;;;;5014200;28;20042;-50
2021/11/27 12:55:16;;;;;;;1.45;1.35;;;8.40;94.10;;;;;;5017827;28;20036;-50
2021/11/27 12:57:44;;;;;;;2.80;1.95;;;8.40;94.50;;;;;;5033386;28;20022;-51
2021/11/27 13:00:18;;;;;;;1.80;1.58;;;8.40;94.80;;;;;;5031486;28;20456;-50
2021/11/27 13:02:51;;;;;;;6.90;2.42;;;8.40;94.20;;;;;;5033207;28;20034;-50